createdAt,value
2018-03-17T00:00:26.740Z,10.30
2018-03-17T00:02:54.496Z,10.20
2018-03-17T00:05:21.504Z,10.20
2018-03-17T00:07:48.112Z,10.20
2018-03-17T00:10:14.728Z,10.20
2018-03-17T00:12:41.356Z,10.20
2018-03-17T00:15:08.379Z,10.20
2018-03-17T00:17:35.398Z,10.20
2018-03-17T00:20:02.120Z,10.20
2018-03-17T00:22:28.745Z,10.20
2018-03-17T00:27:24.407Z,10.20
2018-03-17T00:29:51.079Z,10.20
2018-03-17T00:32:17.697Z,10.20
2018-03-17T00:34:44.750Z,10.20
2018-03-17T00:42:08.350Z,10.20
2018-03-17T00:44:35.007Z,10.20
2018-03-17T00:49:30.854Z,10.20
2018-03-17T00:51:57.479Z,10.20
2018-03-17T00:54:24.497Z,10.20
2018-03-17T00:56:51.597Z,10.20
2018-03-17T00:59:18.214Z,10.20
2018-03-17T01:01:44.832Z,10.20
2018-03-17T01:04:11.454Z,10.10
2018-03-17T01:06:38.466Z,10.10
2018-03-17T01:09:05.091Z,10.10
2018-03-17T01:11:32.102Z,10.10
2018-03-17T01:13:58.724Z,10.10
2018-03-17T01:18:53.619Z,10.10
2018-03-17T01:21:20.272Z,10.10
2018-03-17T01:23:46.930Z,10.10
2018-03-17T01:26:13.565Z,10.10
2018-03-17T01:28:40.955Z,10.10
2018-03-17T01:31:07.972Z,10.10
2018-03-17T01:33:34.640Z,10.10
2018-03-17T01:36:01.267Z,10.10
2018-03-17T01:38:28.287Z,10.10
2018-03-17T01:40:54.919Z,10.10
2018-03-17T01:43:21.934Z,10.10
2018-03-17T01:45:49.320Z,10.10
2018-03-17T01:48:16.345Z,10.10
2018-03-17T01:50:42.955Z,10.10
2018-03-17T01:53:10.353Z,10.10
2018-03-17T01:55:36.967Z,10.10
2018-03-17T01:58:04.353Z,10.10
2018-03-17T02:00:30.970Z,10.00
2018-03-17T02:05:27.142Z,10.00
2018-03-17T02:07:53.772Z,10.00
2018-03-17T02:10:20.421Z,10.00
2018-03-17T02:12:47.033Z,10.00
2018-03-17T02:15:14.442Z,10.00
2018-03-17T02:17:41.466Z,10.00
2018-03-17T02:20:08.879Z,10.00
2018-03-17T02:22:35.508Z,10.00
2018-03-17T02:25:02.571Z,10.00
2018-03-17T02:27:29.581Z,10.00
2018-03-17T02:29:56.966Z,10.00
2018-03-17T02:32:23.578Z,10.00
2018-03-17T02:34:50.195Z,10.00
2018-03-17T02:37:17.579Z,10.00
2018-03-17T02:39:44.213Z,10.00
2018-03-17T02:42:12.025Z,9.90
2018-03-17T02:44:39.425Z,9.90
2018-03-17T02:47:06.475Z,9.90
2018-03-17T02:49:33.534Z,9.90
2018-03-17T02:52:00.541Z,9.90
2018-03-17T02:54:27.549Z,9.90
2018-03-17T02:56:54.618Z,9.90
2018-03-17T02:59:21.630Z,9.90
2018-03-17T03:01:48.298Z,9.90
2018-03-17T03:04:15.321Z,9.90
2018-03-17T03:06:41.938Z,9.90
2018-03-17T03:09:09.008Z,9.90
2018-03-17T03:11:35.623Z,9.90
2018-03-17T03:14:02.993Z,9.90
2018-03-17T03:16:29.608Z,9.90
2018-03-17T03:18:56.618Z,9.90
2018-03-17T03:21:23.618Z,9.90
2018-03-17T03:23:50.257Z,9.90
2018-03-17T03:26:17.648Z,9.90
2018-03-17T03:28:44.657Z,9.90
2018-03-17T03:31:11.281Z,9.90
2018-03-17T03:33:38.829Z,9.90
2018-03-17T03:36:05.945Z,9.80
2018-03-17T03:38:33.331Z,9.90
2018-03-17T03:41:00.338Z,9.80
2018-03-17T03:43:26.997Z,9.90
2018-03-17T03:45:53.660Z,9.80
2018-03-17T03:48:20.297Z,9.80
2018-03-17T03:50:47.317Z,9.80
2018-03-17T03:53:14.365Z,9.80
2018-03-17T03:55:41.397Z,9.80
2018-03-17T03:58:08.008Z,9.80
2018-03-17T04:00:35.081Z,9.80
2018-03-17T04:03:02.118Z,9.80
2018-03-17T04:05:29.128Z,9.90
2018-03-17T04:07:56.877Z,9.90
2018-03-17T04:10:23.546Z,10.00
2018-03-17T04:12:50.943Z,10.10
2018-03-17T04:15:17.561Z,10.10
2018-03-17T04:17:44.984Z,10.20
2018-03-17T04:25:08.212Z,10.40
2018-03-17T04:27:35.649Z,10.50
2018-03-17T04:30:02.657Z,10.60
2018-03-17T04:32:29.689Z,10.70
2018-03-17T04:34:57.072Z,10.80
2018-03-17T04:37:24.108Z,10.80
2018-03-17T04:39:51.177Z,10.90
2018-03-17T04:42:17.831Z,10.90
2018-03-17T04:44:44.453Z,10.90
2018-03-17T04:47:11.479Z,10.90
2018-03-17T04:49:38.860Z,10.80
2018-03-17T04:52:06.278Z,10.80
2018-03-17T04:54:32.913Z,10.80
2018-03-17T04:56:59.982Z,10.80
2018-03-17T04:59:28.117Z,10.70
2018-03-17T05:01:55.178Z,10.70
2018-03-17T05:04:22.209Z,10.70
2018-03-17T05:06:48.824Z,10.70
2018-03-17T05:09:16.219Z,10.70
2018-03-17T05:11:42.845Z,10.60
2018-03-17T05:14:09.871Z,10.60
2018-03-17T05:16:36.930Z,10.60
2018-03-17T05:19:04.330Z,10.60
2018-03-17T05:21:31.339Z,10.50
2018-03-17T05:23:58.358Z,10.50
2018-03-17T05:26:24.970Z,10.50
2018-03-17T05:28:52.422Z,10.50
2018-03-17T05:31:19.440Z,10.50
2018-03-17T05:33:46.502Z,10.50
2018-03-17T05:36:13.141Z,10.40
2018-03-17T05:38:39.806Z,10.40
2018-03-17T05:41:06.865Z,10.40
2018-03-17T05:43:33.483Z,10.40
2018-03-17T05:46:00.128Z,10.40
2018-03-17T05:48:26.745Z,10.40
2018-03-17T05:50:53.424Z,10.40
2018-03-17T05:53:20.438Z,10.40
2018-03-17T05:55:47.834Z,10.30
2018-03-17T05:58:15.222Z,10.40
2018-03-17T06:00:43.005Z,10.30
2018-03-17T06:03:09.617Z,10.30
2018-03-17T06:05:36.644Z,10.30
2018-03-17T06:08:03.277Z,10.30
2018-03-17T06:10:31.433Z,10.30
2018-03-17T06:12:58.491Z,10.30
2018-03-17T06:15:25.125Z,10.20
2018-03-17T06:17:52.196Z,10.20
2018-03-17T06:20:19.221Z,10.20
2018-03-17T06:22:45.844Z,10.20
2018-03-17T06:25:13.247Z,10.20
2018-03-17T06:27:39.886Z,10.20
2018-03-17T06:30:06.892Z,10.20
2018-03-17T06:32:34.342Z,10.20
2018-03-17T06:35:01.721Z,10.10
2018-03-17T06:39:56.658Z,10.10
2018-03-17T06:42:23.325Z,10.10
2018-03-17T06:44:50.346Z,10.10
2018-03-17T06:47:17.059Z,10.10
2018-03-17T06:49:44.067Z,10.10
2018-03-17T06:52:10.752Z,10.10
2018-03-17T06:54:38.127Z,10.10
2018-03-17T06:57:04.768Z,10.10
2018-03-17T06:59:31.786Z,10.10
2018-03-17T07:01:58.819Z,10.10
2018-03-17T07:04:25.830Z,10.00
2018-03-17T07:06:52.488Z,10.00
2018-03-17T07:11:45.616Z,10.00
2018-03-17T07:14:12.256Z,10.00
2018-03-17T07:16:39.298Z,10.00
2018-03-17T07:19:06.436Z,10.00
2018-03-17T07:21:33.039Z,10.00
2018-03-17T07:23:59.664Z,9.90
2018-03-17T07:26:27.046Z,9.90
2018-03-17T07:28:53.678Z,9.90
2018-03-17T07:31:20.682Z,9.90
2018-03-17T07:33:47.330Z,9.90
2018-03-17T07:36:13.973Z,9.90
2018-03-17T07:38:40.604Z,9.90
2018-03-17T07:41:07.218Z,9.90
2018-03-17T07:43:34.226Z,9.90
2018-03-17T07:46:01.252Z,9.90
2018-03-17T07:48:28.257Z,9.80
2018-03-17T07:50:54.913Z,9.80
2018-03-17T07:53:22.297Z,9.80
2018-03-17T07:55:48.941Z,9.80
2018-03-17T07:58:15.957Z,9.80
2018-03-17T08:00:42.983Z,9.80
2018-03-17T08:03:10.378Z,9.80
2018-03-17T08:05:37.802Z,9.80
2018-03-17T08:08:04.441Z,9.80
2018-03-17T08:10:31.466Z,9.80
2018-03-17T08:12:58.101Z,9.80
2018-03-17T08:15:24.736Z,9.80
2018-03-17T08:17:52.133Z,9.80
2018-03-17T08:20:19.140Z,9.70
2018-03-17T08:22:45.804Z,9.80
2018-03-17T08:25:13.190Z,9.70
2018-03-17T08:27:40.248Z,9.70
2018-03-17T08:30:07.265Z,9.70
2018-03-17T08:32:34.303Z,9.70
2018-03-17T08:35:00.938Z,9.70
2018-03-17T08:37:28.335Z,9.70
2018-03-17T08:39:55.718Z,9.70
2018-03-17T08:42:22.358Z,9.70
2018-03-17T08:44:48.988Z,9.70
2018-03-17T08:47:16.020Z,9.70
2018-03-17T08:49:42.661Z,9.70
2018-03-17T08:52:09.316Z,9.70
2018-03-17T08:54:35.929Z,9.70
2018-03-17T08:57:02.563Z,9.70
2018-03-17T08:59:29.602Z,9.70
2018-03-17T09:01:56.663Z,9.60
2018-03-17T09:04:23.330Z,9.60
2018-03-17T09:06:49.943Z,9.60
2018-03-17T09:09:17.337Z,9.60
2018-03-17T09:11:44.356Z,9.60
2018-03-17T09:14:11.178Z,9.60
2018-03-17T09:16:38.176Z,9.60
2018-03-17T09:19:04.823Z,9.60
2018-03-17T09:21:31.438Z,9.60
2018-03-17T09:23:58.461Z,9.60
2018-03-17T09:26:25.076Z,9.60
2018-03-17T09:28:52.136Z,9.60
2018-03-17T09:31:19.145Z,9.60
2018-03-17T09:33:46.578Z,9.60
2018-03-17T09:36:13.595Z,9.60
2018-03-17T09:38:40.618Z,9.60
2018-03-17T09:41:08.009Z,9.60
2018-03-17T09:43:35.023Z,9.60
2018-03-17T09:46:01.668Z,9.60
2018-03-17T09:48:28.305Z,9.60
2018-03-17T09:50:55.329Z,9.60
2018-03-17T09:53:22.723Z,9.50
2018-03-17T09:55:49.362Z,9.50
2018-03-17T09:58:16.385Z,9.50
2018-03-17T10:00:43.078Z,9.50
2018-03-17T10:03:09.687Z,9.50
2018-03-17T10:05:44.224Z,9.50
2018-03-17T10:08:20.162Z,9.50
2018-03-17T10:10:47.220Z,9.50
2018-03-17T10:15:53.550Z,9.50
2018-03-17T10:18:20.204Z,9.50
2018-03-17T10:20:46.871Z,9.50
2018-03-17T10:23:14.266Z,9.50
2018-03-17T10:25:41.298Z,9.50
2018-03-17T10:28:08.320Z,9.50
2018-03-17T10:30:35.349Z,9.50
2018-03-17T10:33:03.462Z,9.50
2018-03-17T10:35:30.110Z,9.40
2018-03-17T10:37:57.148Z,9.40
2018-03-17T10:40:24.183Z,9.40
2018-03-17T10:42:51.208Z,9.40
2018-03-17T10:45:18.230Z,9.40
2018-03-17T10:47:45.262Z,9.40
2018-03-17T10:50:12.658Z,9.40
2018-03-17T10:52:39.696Z,9.40
2018-03-17T10:55:06.765Z,9.40
2018-03-17T11:00:12.862Z,9.40
2018-03-17T11:02:41.302Z,9.40
2018-03-17T11:05:08.696Z,9.40
2018-03-17T11:07:35.331Z,9.40
2018-03-17T11:10:02.348Z,9.40
2018-03-17T11:12:29.385Z,9.30
2018-03-17T11:14:56.393Z,9.40
2018-03-17T11:17:23.414Z,9.30
2018-03-17T11:19:50.789Z,9.30
2018-03-17T11:22:17.827Z,9.30
2018-03-17T11:24:45.209Z,9.30
2018-03-17T11:27:12.247Z,9.30
2018-03-17T11:29:38.867Z,9.30
2018-03-17T11:32:05.510Z,9.30
2018-03-17T11:34:32.518Z,9.30
2018-03-17T11:36:59.565Z,9.30
2018-03-17T11:39:26.173Z,9.30
2018-03-17T11:41:52.793Z,9.30
2018-03-17T11:44:19.429Z,9.30
2018-03-17T11:46:46.069Z,9.30
2018-03-17T11:49:12.743Z,9.20
2018-03-17T11:51:39.778Z,9.20
2018-03-17T11:54:06.800Z,9.20
2018-03-17T11:59:05.068Z,9.20
2018-03-17T12:01:32.448Z,9.20
2018-03-17T12:03:59.470Z,9.20
2018-03-17T12:06:26.103Z,9.20
2018-03-17T12:08:53.497Z,9.20
2018-03-17T12:11:20.151Z,9.20
2018-03-17T12:13:46.838Z,9.20
2018-03-17T12:16:13.490Z,9.20
2018-03-17T12:18:40.123Z,9.20
2018-03-17T12:21:06.740Z,9.20
2018-03-17T12:23:33.783Z,9.30
2018-03-17T12:26:01.175Z,9.40
2018-03-17T12:28:28.583Z,9.40
2018-03-17T12:30:55.610Z,9.50
2018-03-17T12:33:23.027Z,9.60
2018-03-17T12:35:49.658Z,9.70
2018-03-17T12:38:16.671Z,9.70
2018-03-17T12:40:43.702Z,9.80
2018-03-17T12:43:10.316Z,9.90
2018-03-17T12:45:37.001Z,10.00
2018-03-17T12:48:04.028Z,10.10
2018-03-17T12:50:31.062Z,10.10
2018-03-17T12:52:57.677Z,10.20
2018-03-17T12:57:52.975Z,10.30
2018-03-17T13:00:19.893Z,10.40
2018-03-17T13:02:46.519Z,10.40
2018-03-17T13:05:13.159Z,10.50
2018-03-17T13:07:39.793Z,10.50
2018-03-17T13:10:06.413Z,10.60
2018-03-17T13:12:33.437Z,10.70
2018-03-17T13:15:00.077Z,10.70
2018-03-17T13:17:27.854Z,10.80
2018-03-17T13:19:54.478Z,10.80
2018-03-17T13:22:21.113Z,10.90
2018-03-17T13:24:47.732Z,11.00
2018-03-17T13:27:14.790Z,11.00
2018-03-17T13:29:41.905Z,11.00
2018-03-17T13:32:08.566Z,11.10
2018-03-17T13:37:27.133Z,11.20
2018-03-17T13:39:53.832Z,11.30
2018-03-17T13:42:20.911Z,11.30
2018-03-17T13:44:47.539Z,11.30
2018-03-17T13:47:14.970Z,11.40
2018-03-17T13:49:41.981Z,11.40
2018-03-17T13:52:09.046Z,11.40
2018-03-17T13:54:35.716Z,11.40
2018-03-17T13:57:02.782Z,11.50
2018-03-17T13:59:29.817Z,11.50
2018-03-17T14:01:56.829Z,11.60
2018-03-17T14:04:23.512Z,11.60
2018-03-17T14:06:50.767Z,11.60
2018-03-17T14:09:17.801Z,11.70
2018-03-17T14:11:45.179Z,11.70
2018-03-17T14:14:12.212Z,11.70
2018-03-17T14:16:44.795Z,11.80
2018-03-17T14:19:12.209Z,11.80
2018-03-17T14:21:39.689Z,11.90
2018-03-17T14:24:06.323Z,11.90
2018-03-17T14:26:33.390Z,12.00
2018-03-17T14:29:00.801Z,12.00
2018-03-17T14:31:27.415Z,12.00
2018-03-17T14:33:54.484Z,12.00
2018-03-17T14:36:21.123Z,12.00
2018-03-17T14:38:48.134Z,12.10
2018-03-17T14:41:15.533Z,12.10
2018-03-17T14:43:42.195Z,12.10
2018-03-17T14:46:08.833Z,12.10
2018-03-17T14:48:36.599Z,12.10
2018-03-17T14:51:03.238Z,12.20
2018-03-17T14:53:30.257Z,12.20
2018-03-17T14:55:57.289Z,12.20
2018-03-17T14:58:24.681Z,12.20
2018-03-17T15:03:20.355Z,12.30
2018-03-17T15:05:48.172Z,12.30
2018-03-17T15:08:15.182Z,12.30
2018-03-17T15:10:42.246Z,12.40
2018-03-17T15:13:08.890Z,12.40
2018-03-17T15:15:35.529Z,12.40
2018-03-17T15:18:02.916Z,12.40
2018-03-17T15:20:30.685Z,12.40
2018-03-17T15:22:57.731Z,12.40
2018-03-17T15:25:24.368Z,12.50
2018-03-17T15:27:51.006Z,12.50
2018-03-17T15:30:18.060Z,12.50
2018-03-17T15:32:44.697Z,12.50
2018-03-17T15:35:11.717Z,12.60
2018-03-17T15:37:38.746Z,12.60
2018-03-17T15:40:05.366Z,12.50
2018-03-17T15:42:32.010Z,12.60
2018-03-17T15:44:58.638Z,12.60
2018-03-17T15:47:25.277Z,12.70
2018-03-17T15:49:52.658Z,12.70
2018-03-17T15:52:20.048Z,12.70
2018-03-17T15:54:47.441Z,12.70
2018-03-17T15:57:14.122Z,12.70
2018-03-17T15:59:40.737Z,12.70
2018-03-17T16:02:07.753Z,12.70
2018-03-17T16:04:34.391Z,12.70
2018-03-17T16:07:01.049Z,12.70
2018-03-17T16:09:27.687Z,12.80
2018-03-17T16:11:54.764Z,12.80
2018-03-17T16:14:21.794Z,12.80
2018-03-17T16:16:48.818Z,12.80
2018-03-17T16:19:16.227Z,12.80
2018-03-17T16:21:42.849Z,12.80
2018-03-17T16:24:09.499Z,12.80
2018-03-17T16:26:36.917Z,12.90
2018-03-17T16:29:04.026Z,12.90
2018-03-17T16:31:30.637Z,12.90
2018-03-17T16:33:57.669Z,13.00
2018-03-17T16:36:25.433Z,13.00
2018-03-17T16:38:52.840Z,13.00
2018-03-17T16:41:19.477Z,13.00
2018-03-17T16:43:46.545Z,12.90
2018-03-17T16:46:13.169Z,12.90
2018-03-17T16:48:39.855Z,12.90
2018-03-17T16:51:07.243Z,13.00
2018-03-17T16:53:33.887Z,13.00
2018-03-17T16:56:01.294Z,13.00
2018-03-17T16:58:27.915Z,12.90
2018-03-17T17:00:54.553Z,12.80
2018-03-17T17:03:21.617Z,12.80
2018-03-17T17:05:48.258Z,12.70
2018-03-17T17:08:15.429Z,12.60
2018-03-17T17:10:42.466Z,12.60
2018-03-17T17:13:09.856Z,12.50
2018-03-17T17:15:36.495Z,12.40
2018-03-17T17:18:03.120Z,12.40
2018-03-17T17:20:30.529Z,12.40
2018-03-17T17:22:57.153Z,12.30
2018-03-17T17:25:23.827Z,12.30
2018-03-17T17:27:50.899Z,12.30
2018-03-17T17:30:17.588Z,12.30
2018-03-17T17:32:44.957Z,12.20
2018-03-17T17:35:12.025Z,12.20
2018-03-17T17:37:39.062Z,12.20
2018-03-17T17:40:06.104Z,12.10
2018-03-17T17:42:33.190Z,12.10
2018-03-17T17:45:00.901Z,12.10
2018-03-17T17:47:27.567Z,12.00
2018-03-17T17:49:54.966Z,12.00
2018-03-17T17:52:22.050Z,12.00
2018-03-17T17:54:49.101Z,12.00
2018-03-17T17:57:15.738Z,11.90
2018-03-17T17:59:42.388Z,11.90
2018-03-17T18:02:09.435Z,11.90
2018-03-17T18:04:36.449Z,11.80
2018-03-17T18:07:03.063Z,11.80
2018-03-17T18:09:30.094Z,11.80
2018-03-17T18:11:57.508Z,11.70
2018-03-17T18:14:24.148Z,11.70
2018-03-17T18:16:51.592Z,11.70
2018-03-17T18:19:18.231Z,11.70
2018-03-17T18:21:44.863Z,11.70
2018-03-17T18:24:11.541Z,11.60
2018-03-17T18:26:38.573Z,11.60
2018-03-17T18:29:05.606Z,11.60
2018-03-17T18:31:32.709Z,11.60
2018-03-17T18:33:59.448Z,11.50
2018-03-17T18:36:26.592Z,11.50
2018-03-17T18:38:53.252Z,11.50
2018-03-17T18:41:21.394Z,11.40
2018-03-17T18:43:48.031Z,11.40
2018-03-17T18:46:14.646Z,11.40
2018-03-17T18:48:41.675Z,11.40
2018-03-17T18:51:08.771Z,11.30
2018-03-17T18:56:04.100Z,11.30
2018-03-17T18:58:31.115Z,11.30
2018-03-17T19:00:58.221Z,11.20
2018-03-17T19:03:25.259Z,11.20
2018-03-17T19:08:20.247Z,11.20
2018-03-17T19:10:46.882Z,11.20
2018-03-17T19:13:13.905Z,11.10
2018-03-17T19:15:40.571Z,11.10
2018-03-17T19:18:07.643Z,11.10
2018-03-17T19:20:34.279Z,11.10
2018-03-17T19:23:01.711Z,11.10
2018-03-17T19:25:29.111Z,11.10
2018-03-17T19:27:55.744Z,11.00
2018-03-17T19:30:22.373Z,11.00
2018-03-17T19:32:49.004Z,11.00
2018-03-17T19:35:16.040Z,11.00
2018-03-17T19:37:43.080Z,10.90
2018-03-17T19:40:09.718Z,10.90
2018-03-17T19:42:36.733Z,10.90
2018-03-17T19:45:03.769Z,10.90
2018-03-17T19:47:30.448Z,10.90
2018-03-17T19:49:57.845Z,10.80
2018-03-17T19:52:24.481Z,10.80
2018-03-17T19:54:51.150Z,10.80
2018-03-17T19:57:18.247Z,10.80
2018-03-17T19:59:45.261Z,10.80
2018-03-17T20:02:12.289Z,10.80
2018-03-17T20:04:39.319Z,10.80
2018-03-17T20:07:06.728Z,10.70
2018-03-17T20:09:34.134Z,10.70
2018-03-17T20:12:01.545Z,10.70
2018-03-17T20:14:28.941Z,10.70
2018-03-17T20:16:55.574Z,10.70
2018-03-17T20:19:22.581Z,10.60
2018-03-17T20:21:49.225Z,10.60
2018-03-17T20:24:15.857Z,10.60
2018-03-17T20:26:42.904Z,10.60
2018-03-17T20:31:37.831Z,10.60
2018-03-17T20:34:04.859Z,10.50
2018-03-17T20:36:31.497Z,10.50
2018-03-17T20:38:58.135Z,10.50
2018-03-17T20:41:24.835Z,10.50
2018-03-17T20:43:51.508Z,10.50
2018-03-17T20:46:18.907Z,10.50
2018-03-17T20:48:45.554Z,10.50
2018-03-17T20:51:12.201Z,10.40
2018-03-17T20:53:38.859Z,10.40
2018-03-17T20:56:05.898Z,10.40
2018-03-17T20:58:32.532Z,10.40
2018-03-17T21:00:59.165Z,10.40
2018-03-17T21:03:26.190Z,10.40
2018-03-17T21:05:53.265Z,10.40
2018-03-17T21:08:20.297Z,10.30
2018-03-17T21:10:47.335Z,10.30
2018-03-17T21:15:50.107Z,10.30
2018-03-17T21:20:45.424Z,10.30
2018-03-17T21:23:12.059Z,10.30
2018-03-17T21:25:39.115Z,10.20
2018-03-17T21:28:05.729Z,10.20
2018-03-17T21:38:20.209Z,10.20
2018-03-17T21:40:46.884Z,10.20
2018-03-17T21:43:13.925Z,10.20
2018-03-17T21:45:40.996Z,10.10
2018-03-17T21:48:08.016Z,10.10
2018-03-17T21:53:02.972Z,10.10
2018-03-17T21:55:30.049Z,10.10
2018-03-17T21:57:57.092Z,10.10
2018-03-17T22:00:23.781Z,10.10
2018-03-17T22:02:50.815Z,10.10
2018-03-17T22:05:18.232Z,10.10
2018-03-17T22:07:44.919Z,10.10
2018-03-17T22:10:12.117Z,10.10
2018-03-17T22:12:39.143Z,10.10
2018-03-17T22:15:06.534Z,10.10
2018-03-17T22:17:33.576Z,10.00
2018-03-17T22:20:01.719Z,10.00
2018-03-17T22:22:29.123Z,10.00
2018-03-17T22:24:56.133Z,10.00
2018-03-17T22:27:22.816Z,10.00
2018-03-17T22:29:49.855Z,10.00
2018-03-17T22:32:20.948Z,10.00
2018-03-17T22:34:47.970Z,9.90
2018-03-17T22:37:14.591Z,9.90
2018-03-17T22:39:41.649Z,9.90
2018-03-17T22:42:09.037Z,9.90
2018-03-17T22:44:35.671Z,9.90
2018-03-17T22:51:59.317Z,9.80
2018-03-17T22:54:25.968Z,9.80
2018-03-17T22:56:53.349Z,9.80
2018-03-17T22:59:20.007Z,9.80
2018-03-17T23:01:47.389Z,9.80
2018-03-17T23:04:14.420Z,9.80
2018-03-17T23:06:41.036Z,9.80
2018-03-17T23:09:08.061Z,9.80
2018-03-17T23:11:34.743Z,9.80
2018-03-17T23:14:01.355Z,9.80
2018-03-17T23:16:28.374Z,9.80
2018-03-17T23:18:55.752Z,9.70
2018-03-17T23:21:22.783Z,9.70
2018-03-17T23:23:49.798Z,9.70
2018-03-17T23:26:16.843Z,9.70
2018-03-17T23:28:43.461Z,9.70
2018-03-17T23:31:10.482Z,9.70
2018-03-17T23:33:37.514Z,9.70
2018-03-17T23:36:04.551Z,9.70
2018-03-17T23:38:31.184Z,9.60
2018-03-17T23:40:58.573Z,9.60
2018-03-17T23:43:26.994Z,9.60
2018-03-17T23:45:53.637Z,9.60
2018-03-17T23:48:20.648Z,9.60
2018-03-17T23:50:47.280Z,9.60
2018-03-17T23:53:13.904Z,9.60
2018-03-17T23:55:40.576Z,9.60
2018-03-17T23:58:07.244Z,9.60
